• Join FlightAware (Why Join?)
  • Login
  • US Flag 
08:37AM EDT


 

Airport Tracker/Info


-or-


 

Live Flight TrackerFlight Track Log ✈ GJS3649 ✈ 08-Jul-2013 ✈ KTUL - KORD

Flight Track Log - Related Links

Times and Time Zones

All times are in EDT time to prevent confusion due to time zone crossing. See the GJS3649 flight status page for this flight to view local times or setup timezone preferences in your user account.

Time Position Orientation Groundspeed Altitude Reporting Facility
EDT Latitude Longitude Course Direction KTS MPH feet Rate Location/Type
07:18AM 36.1844 -95.8828 139° Southeast 154 177 1,200  Level Kansas City Center
07:19AM 36.1542 -95.8506 139° Southeast 201 231 3,100 1,620 Climbing Kansas City Center
07:20AM 36.1542 -95.7794 90° East 229 264 4,600 1,800 Climbing Kansas City Center
07:21AM 36.1911 -95.7081 57° Northeast 260 299 6,700 2,220 Climbing Kansas City Center
07:22AM 36.2689 -95.6858 13° North 277 319 9,200 1,920 Climbing Kansas City Center
07:23AM 36.3517 -95.6800 North 291 335 10,600 1,320 Climbing Kansas City Center
07:24AM 36.4481 -95.6736 North 331 381 11,900 1,440 Climbing Kansas City Center
07:25AM 36.5481 -95.6658 North 350 403 13,600 1,620 Climbing Kansas City Center
07:26AM 36.6519 -95.6589 North 363 418 15,200 1,560 Climbing Kansas City Center
07:27AM 36.7592 -95.6517 North 377 434 16,800 1,440 Climbing Kansas City Center
07:28AM 36.8675 -95.6444 North 384 442 18,200 1,320 Climbing Kansas City Center
07:29AM 36.9772 -95.6381 North 390 449 19,600 1,260 Climbing Kansas City Center
07:30AM 37.0903 -95.6306 North 399 459 20,800 1,080 Climbing Kansas City Center
07:31AM 37.2058 -95.6222 North 410 472 21,900 1,080 Climbing Kansas City Center
07:32AM 37.3225 -95.6142 North 415 478 23,100 1,080 Climbing Kansas City Center
07:33AM 37.4378 -95.6064 North 414 476 24,100 1,080 Climbing Kansas City Center
07:34AM 37.5789 -95.5975 North 419 482 25,300 1,080 Climbing Kansas City Center
07:35AM 37.6922 -95.5636 13° North 419 482 26,300 780 Climbing Kansas City Center
07:36AM 37.8039 -95.5058 22° Northeast 428 493 26,900 540 Climbing Kansas City Center
07:37AM 37.9175 -95.4519 21° North 434 499 27,500 540 Climbing Kansas City Center
07:38AM 38.0250 -95.4008 21° North 443 510 28,100 660 Climbing Kansas City Center
07:39AM 38.1556 -95.3378 21° North 449 517 28,900 660 Climbing Kansas City Center
07:40AM 38.2675 -95.2822 21° North 449 517 29,500 540 Climbing Kansas City Center
07:41AM 38.3808 -95.2258 21° North 455 524 30,000 540 Climbing Kansas City Center
07:42AM 38.5139 -95.1606 21° North 457 526 30,700 480 Climbing Kansas City Center
07:43AM 38.6283 -95.1028 22° Northeast 462 532 31,000 120 Climbing Kansas City Center
07:44AM 38.7653 -95.0356 21° North 473 544 31,000  Level Kansas City Center
07:45AM 38.8844 -94.9758 21° North 480 552 31,000  Level Kansas City Center
07:46AM 39.0014 -94.9172 21° North 476 548 31,000  Level Kansas City Center
07:47AM 39.1381 -94.8483 21° North 477 549 31,000  Level Kansas City Center
07:48AM 39.2561 -94.7883 21° North 478 550 31,000  Level Kansas City Center
07:49AM 39.3950 -94.7217 20° North 485 558 31,000  Level Kansas City Center
07:50AM 39.5108 -94.6625 22° Northeast 471 542 31,000  Level Kansas City Center
07:51AM 39.6467 -94.5928 22° Northeast 471 542 31,000  Level Kansas City Center
07:52AM 39.7636 -94.5319 22° Northeast 474 545 31,000  Level Kansas City Center
07:53AM 39.8806 -94.4731 21° North 472 543 31,000  Level Kansas City Center
07:54AM 40.0181 -94.4011 22° Northeast 475 547 31,000  Level Kansas City Center
07:55AM 40.1356 -94.3411 21° North 474 545 31,000  Level Kansas City Center
07:56AM 40.2539 -94.2792 22° Northeast 476 548 31,000  Level Kansas City Center
07:57AM 40.3961 -94.2036 22° Northeast 481 554 31,000  Level Kansas City Center
07:58AM 40.4697 -94.1647 22° Northeast 481 554 31,000  Level Minneapolis Center
07:59AM 40.5939 -94.1003 22° Northeast 483 556 31,000  Level Minneapolis Center
08:00AM 40.7183 -94.0339 22° Northeast 482 555 31,000  Level Minneapolis Center
08:01AM 40.8436 -93.9678 22° Northeast 485 558 31,000  Level Minneapolis Center
08:02AM 40.9689 -93.9011 22° Northeast 487 560 31,000  Level Minneapolis Center
08:03AM 41.0933 -93.8347 22° Northeast 485 558 31,000  Level Minneapolis Center
08:04AM 41.2167 -93.7683 22° Northeast 482 555 31,000  Level Minneapolis Center
08:05AM 41.3392 -93.7028 22° Northeast 479 551 31,000  Level Minneapolis Center
08:06AM 41.4514 -93.6114 31° Northeast 493 567 31,000  Level Minneapolis Center
08:07AM 41.5181 -93.4481 61° Northeast 505 581 31,000  Level Minneapolis Center
08:08AM 41.5981 -93.2511 61° Northeast 507 583 31,000  Level Minneapolis Center
08:09AM 41.6633 -93.0864 62° Northeast 505 581 31,000  Level Minneapolis Center
08:10AM 41.7289 -92.9222 62° Northeast 504 580 31,000  Level Minneapolis Center
08:11AM 41.7969 -92.7481 62° Northeast 503 579 31,000  Level Minneapolis Center
08:12AM 41.8481 -92.6150 63° Northeast 504 580 31,000  Level Chicago Center
08:13AM 41.9122 -92.4511 62° Northeast 503 579 31,000  Level Chicago Center
08:14AM 41.9858 -92.2594 63° Northeast 490 564 31,000  Level Chicago Center
08:15AM 42.0492 -92.0981 62° Northeast 493 567 31,000  Level Chicago Center
08:16AM 42.1100 -91.9369 63° Northeast 491 565 31,000  Level Chicago Center
08:17AM 42.1714 -91.7761 63° Northeast 490 564 31,000  Level Chicago Center
08:18AM 42.2311 -91.6183 63° Northeast 482 555 31,000 -420 Level Chicago Center
08:19AM 42.2800 -91.4156 72° East 484 557 30,200 -900 Descending Chicago Center
08:20AM 42.3081 -91.2353 78° East 497 572 29,200 -600 Descending Chicago Center
08:21AM 42.3344 -91.0547 79° East 496 571 29,000 -540 Descending Chicago Center
08:22AM 42.3608 -90.8733 79° East 501 577 28,200 -900 Descending Chicago Center
08:23AM 42.3864 -90.7022 79° East 468 539 27,200 -1,080 Descending Chicago Center
08:24AM 42.4131 -90.5156 79° East 430 495 26,000 -1,080 Descending Chicago Center
08:25AM 42.4358 -90.3606 79° East 427 491 25,000 -1,020 Descending Chicago Center
08:26AM 42.4575 -90.2078 79° East 420 483 24,000 -1,020 Descending Chicago Center
08:27AM 42.4803 -90.0536 79° East 422 486 23,000 -1,260 Descending Chicago Center
08:28AM 42.5061 -89.8669 79° East 445 512 21,400 -1,560 Descending Chicago Center
08:30AM 42.5117 -89.7039 87° East 438 504 19,900 -1,500 Descending Chicago Center
08:31AM 42.4939 -89.5394 98° East 441 507 18,400 -1,500 Descending Chicago Center
08:32AM 42.4756 -89.3761 99° East 439 505 16,900 -1,500 Descending Chicago Center
08:33AM 42.4556 -89.1908 98° East 428 493 15,400 -1,440 Descending Chicago Center
08:34AM 42.4381 -89.0375 99° East 416 479 14,000 -1,320 Descending Chicago Center
08:35AM 42.4197 -88.8842 99° East 414 476 12,700 -1,260 Descending Chicago Center
08:36AM 42.4025 -88.7333 99° East 408 470 11,500 -1,140 Descending Chicago Center
08:37AM 42.3861 -88.5894 99° East 390 449 10,400 -720 Descending Chicago Center
08:38AM 42.3642 -88.4603 103° East 361 415 10,100 -180 Descending Chicago Center
08:39AM 42.3075 -88.3339 121° Southeast 357 411 10,100 -60 Level Chicago Center
08:40AM 42.2456 -88.2308 129° Southeast 355 409 10,000 -60 Descending Chicago Center
08:41AM 42.1828 -88.1319 131° Southeast 351 404 10,000 -420 Level Chicago Center
08:42AM 42.1150 -88.0544 140° Southeast 326 375 9,200 -1,260 Descending Chicago Center
08:43AM 42.0919 -87.9275 104° East 310 357 7,400 -1,260 Descending Chicago Center
08:44AM 42.0919 -87.8231 90° East 286 329 6,700 -1,320 Descending Chicago Center
08:45AM 42.0917 -87.7292 90° East 260 299 4,700 -1,980 Descending Chicago Center
08:46AM 42.0653 -87.6669 120° Southeast 233 268 2,700 -1,080 Descending Chicago Center
08:47AM 42.0314 -87.7086 222° Southwest 188 216 2,600 -120 Descending Chicago Center
08:48AM 42.0064 -87.7586 236° Southwest 171 197 2,500 -420 Descending Chicago Center
08:49AM 42.0036 -87.8258 267° West 159 183 1,800 -660 Descending Chicago Center
08:50AM 42.0033 -87.8786 270° West 150 173 1,200 -600 Descending Chicago Center